Time;durP1;ratioP1;P1;durP2;ratioP2;P2;SDS_P1;SDS_P2;PMS_P1;PMS_P2;Temp;Humidity;BMP_temperature;BMP_pressure;BME280_temperature;BME280_humidity;BME280_pressure;Samples;Min_cycle;Max_cycle;Signal;HPM_P1;HPM_P2
2021/05/19 00:01:06;;;;;;;22.05;19.05;;;;;;;9.13;87.53;98433.14;124531;1104;64399;-81
2021/05/19 00:03:33;;;;;;;22.80;19.80;;;;;;;9.09;87.40;98436.99;124549;1100;64314;-80
2021/05/19 00:06:00;;;;;;;21.63;18.33;;;;;;;9.02;87.33;98435.71;124640;1099;64368;-80
2021/05/19 00:08:27;;;;;;;23.90;17.83;;;;;;;8.96;87.46;98436.99;124577;1104;64313;-80
2021/05/19 00:10:54;;;;;;;21.27;18.93;;;;;;;8.93;87.64;98434.55;124610;1105;64383;-80
2021/05/19 00:13:22;;;;;;;22.60;19.03;;;;;;;8.86;87.55;98435.92;124595;1100;64341;-80
2021/05/19 00:15:49;;;;;;;26.60;19.77;;;;;;;8.78;87.69;98439.11;124524;1104;64473;-80
2021/05/19 00:18:16;;;;;;;34.30;31.05;;;;;;;8.72;87.64;98436.03;124627;1100;64346;-80
2021/05/19 00:20:43;;;;;;;35.97;32.57;;;;;;;8.65;87.92;98427.61;124731;1100;64256;-81
2021/05/19 00:23:11;;;;;;;31.40;28.23;;;;;;;8.66;87.96;98428.46;124548;1104;64316;-81
2021/05/19 00:25:38;;;;;;;27.13;24.27;;;;;;;8.63;88.05;98424.20;124573;1105;64431;-81
2021/05/19 00:28:05;;;;;;;27.75;23.20;;;;;;;8.63;88.22;98420.70;124598;1105;64397;-80
2021/05/19 00:30:34;;;;;;;25.67;22.93;;;;;;;8.63;88.24;98420.70;124673;1100;64435;-81
2021/05/19 00:33:02;;;;;;;23.97;20.80;;;;;;;8.65;88.27;98419.65;124569;1100;64368;-81
2021/05/19 00:35:29;;;;;;;24.53;20.80;;;;;;;8.65;88.39;98424.96;124538;1104;64412;-81
2021/05/19 00:37:56;;;;;;;24.57;21.83;;;;;;;8.66;88.41;98429.34;124556;1105;64368;-80
2021/05/19 00:40:24;;;;;;;26.97;22.70;;;;;;;8.65;88.42;98424.96;124594;1104;64483;-81
2021/05/19 00:42:53;;;;;;;24.30;21.07;;;;;;;8.66;88.48;98433.77;124673;1098;64346;-80
2021/05/19 00:45:21;;;;;;;23.43;21.03;;;;;;;8.64;88.58;98435.70;124802;1100;64259;-80
2021/05/19 00:47:48;;;;;;;25.55;21.65;;;;;;;8.66;88.56;98442.63;124625;1098;64435;-80
2021/05/19 00:50:27;;;;;;;26.85;21.35;;;;;;;8.65;88.45;98435.59;124474;1104;64339;-81
2021/05/19 00:52:55;;;;;;;24.33;21.77;;;;;;;8.66;88.53;98436.43;124703;1105;64533;-81
2021/05/19 00:55:23;;;;;;;29.07;23.87;;;;;;;8.63;88.62;98441.95;124683;1104;64415;-81
2021/05/19 00:57:54;;;;;;;28.67;25.53;;;;;;;8.59;88.60;98446.64;124571;1104;64344;-81
2021/05/19 01:00:24;;;;;;;22.33;19.50;;;;;;;8.52;88.53;98434.72;124579;1100;64454;-81
2021/05/19 01:02:52;;;;;;;21.90;19.05;;;;;;;8.47;88.56;98434.17;124587;1105;64329;-81
2021/05/19 01:11:21;;;;;;;21.33;19.03;;;;;;;8.36;89.13;98430.40;124252;1099;65676;-81
2021/05/19 01:13:48;;;;;;;20.73;18.33;;;;;;;8.34;89.08;98439.42;124628;1104;64342;-80
2021/05/19 01:16:16;;;;;;;21.37;18.77;;;;;;;8.34;89.30;98429.64;124549;1105;64454;-81
2021/05/19 01:18:44;;;;;;;24.47;19.87;;;;;;;8.36;89.21;98434.86;124523;1100;64458;-81
2021/05/19 01:21:12;;;;;;;23.63;21.17;;;;;;;8.34;89.32;98434.95;124602;1100;64331;-80
2021/05/19 01:23:40;;;;;;;24.43;21.50;;;;;;;8.34;89.47;98437.61;124553;1104;64253;-81
2021/05/19 01:26:11;;;;;;;20.47;18.27;;;;;;;8.35;89.54;98447.30;124667;1100;64493;-81
2021/05/19 01:28:39;;;;;;;;;;;;;;;8.38;89.77;98437.44;124575;1104;64785;-81
2021/05/19 01:31:08;;;;;;;22.40;19.20;;;;;;;8.38;89.63;98438.27;124580;1100;64358;-80
2021/05/19 01:33:36;;;;;;;24.80;19.73;;;;;;;8.38;89.66;98434.77;124546;1104;64443;-81
2021/05/19 01:36:04;;;;;;;29.20;26.20;;;;;;;8.36;89.77;98443.67;124587;1099;64345;-81
2021/05/19 01:38:33;;;;;;;27.57;24.70;;;;;;;8.36;89.92;98441.02;124636;1104;64367;-80
2021/05/19 01:41:02;;;;;;;22.65;20.20;;;;;;;8.38;90.17;98448.05;124565;1104;64365;-81
2021/05/19 01:43:34;;;;;;;21.60;17.77;;;;;;;8.37;89.70;98452.48;124631;1099;64333;-81
2021/05/19 01:46:02;;;;;;;21.80;17.47;;;;;;;8.38;89.97;98453.36;124574;1104;64336;-80
2021/05/19 01:48:32;;;;;;;18.27;16.47;;;;;;;8.39;89.66;98457.70;124764;1098;64355;-81
2021/05/19 01:51:00;;;;;;;21.33;18.03;;;;;;;8.37;89.87;98452.48;124671;1100;64312;-81
2021/05/19 01:53:29;;;;;;;19.95;17.80;;;;;;;8.39;89.99;98447.08;124557;1104;64344;-80
2021/05/19 01:55:59;;;;;;;20.55;17.75;;;;;;;8.36;89.92;98448.14;124651;1100;64259;-81
2021/05/19 01:58:27;;;;;;;19.35;17.30;;;;;;;8.38;90.04;98446.24;124746;1104;64435;-80
2021/05/19 02:00:55;;;;;;;18.90;16.97;;;;;;;8.38;90.04;98451.55;124713;1100;64349;-80
2021/05/19 02:03:22;;;;;;;20.53;17.47;;;;;;;8.37;89.95;98452.48;124571;1100;64259;-81
2021/05/19 02:05:49;;;;;;;19.33;17.27;;;;;;;8.34;89.92;98452.69;124630;1104;64463;-80
2021/05/19 02:08:16;;;;;;;19.37;17.37;;;;;;;8.31;90.00;98453.75;124712;1105;64504;-80
2021/05/19 02:10:44;;;;;;;18.40;16.30;;;;;;;8.30;89.93;98461.83;124552;1105;64342;-80
2021/05/19 02:13:12;;;;;;;16.93;15.13;;;;;;;8.27;89.98;98462.88;124525;1100;64285;-80
2021/05/19 02:15:39;;;;;;;23.80;21.47;;;;;;;8.28;90.14;98469.04;124564;1098;64335;-81
2021/05/19 02:18:07;;;;;;;24.23;21.77;;;;;;;8.27;90.19;98464.70;124577;1099;64493;-81
2021/05/19 02:20:35;;;;;;;18.90;17.10;;;;;;;8.24;90.10;98456.91;124598;1104;64595;-81
2021/05/19 02:23:02;;;;;;;20.70;18.50;;;;;;;8.23;90.22;98466.68;124561;1100;64365;-81
2021/05/19 02:25:30;;;;;;;21.67;19.47;;;;;;;8.19;90.19;98451.05;124508;1104;64255;-81
2021/05/19 02:27:57;;;;;;;20.77;17.93;;;;;;;8.19;90.20;98456.36;124509;1104;64313;-81
2021/05/19 02:30:25;;;;;;;21.07;19.00;;;;;;;8.22;90.09;98461.49;124535;1105;64447;-81
2021/05/19 02:32:53;;;;;;;24.50;22.07;;;;;;;8.22;90.20;98456.19;124612;1098;64322;-81
2021/05/19 02:35:21;;;;;;;23.50;21.00;;;;;;;8.21;90.06;98457.11;124594;1098;64391;-81
2021/05/19 02:37:48;;;;;;;19.30;17.07;;;;;;;8.17;90.08;98453.82;124543;1099;64371;-81
2021/05/19 02:40:17;;;;;;;18.35;16.40;;;;;;;8.18;90.02;98460.82;124564;1098;64335;-81
2021/05/19 02:42:45;;;;;;;18.33;16.53;;;;;;;8.21;90.13;98465.92;124563;1100;64434;-81
2021/05/19 02:45:13;;;;;;;19.53;17.63;;;;;;;8.21;89.87;98460.61;124565;1099;64330;-81
2021/05/19 02:47:40;;;;;;;24.40;22.00;;;;;;;8.20;89.87;98466.04;124561;1104;64364;-81
2021/05/19 02:50:08;;;;;;;21.00;18.90;;;;;;;8.17;89.83;98460.94;124525;1104;64377;-80
2021/05/19 02:52:36;;;;;;;19.10;17.10;;;;;;;8.12;89.93;98466.54;124546;1098;64346;-80
2021/05/19 02:55:04;;;;;;;16.15;14.45;;;;;;;8.06;89.50;98462.48;124632;1104;64310;-80
2021/05/19 02:57:32;;;;;;;19.17;17.13;;;;;;;8.01;89.55;98461.94;124556;1100;64430;-81
2021/05/19 02:59:59;;;;;;;16.43;14.83;;;;;;;7.98;89.52;98456.83;124559;1100;64344;-81
2021/05/19 03:02:26;;;;;;;18.67;16.63;;;;;;;7.96;89.26;98457.88;124570;1104;64336;-81
2021/05/19 03:04:53;;;;;;;18.50;16.57;;;;;;;7.96;89.48;98474.65;124603;1098;64346;-81
2021/05/19 03:07:20;;;;;;;19.65;17.65;;;;;;;7.97;89.29;98473.69;124600;1104;64729;-81
2021/05/19 03:09:48;;;;;;;20.65;18.55;;;;;;;7.95;89.09;98472.08;124567;1104;64335;-81
2021/05/19 03:12:15;;;;;;;22.30;20.00;;;;;;;7.90;89.02;98473.25;124615;1105;64374;-81
2021/05/19 03:14:43;;;;;;;21.03;18.83;;;;;;;7.88;88.83;98469.84;124608;1100;64259;-82
2021/05/19 03:17:10;;;;;;;19.10;17.03;;;;;;;7.85;88.76;98475.34;124616;1099;64349;-82
2021/05/19 03:19:37;;;;;;;20.57;17.43;;;;;;;7.82;88.63;98479.97;124721;1099;64259;-83
2021/05/19 03:22:05;;;;;;;20.73;18.03;;;;;;;7.84;88.77;98470.13;125024;1104;64449;-81
2021/05/19 03:24:32;;;;;;;23.17;20.80;;;;;;;8.02;88.77;98471.59;124985;1100;64294;-81
2021/05/19 03:26:59;;;;;;;16.73;14.57;;;;;;;8.07;88.68;98476.60;124653;1104;64259;-81
2021/05/19 03:29:26;;;;;;;15.63;14.17;;;;;;;8.14;88.55;98480.57;124872;1100;64322;-81
2021/05/19 03:31:54;;;;;;;19.13;17.23;;;;;;;8.18;88.37;98489.17;124564;1100;64432;-81
2021/05/19 03:34:21;;;;;;;22.80;20.47;;;;;;;8.30;88.38;98483.92;124555;1104;65010;-81
2021/05/19 03:36:48;;;;;;;22.40;20.20;;;;;;;9.01;87.99;98487.18;124528;1099;64467;-81
2021/05/19 03:39:16;;;;;;;21.03;18.23;;;;;;;9.93;86.56;98485.17;124537;1105;64360;-81
2021/05/19 03:41:43;;;;;;;17.20;15.17;;;;;;;10.71;85.08;98476.72;124539;1105;64336;-81
2021/05/19 03:44:11;;;;;;;16.70;15.03;;;;;;;11.37;83.87;98482.30;124492;1104;64400;-81
2021/05/19 03:46:39;;;;;;;18.05;16.00;;;;;;;11.91;82.62;98473.58;124557;1098;64287;-79
2021/05/19 03:49:06;;;;;;;17.77;16.07;;;;;;;12.42;81.81;98480.97;124488;1100;64366;-79
2021/05/19 03:51:35;;;;;;;17.30;15.37;;;;;;;12.96;80.92;98481.83;124470;1104;64259;-82
2021/05/19 03:54:04;;;;;;;15.83;14.23;;;;;;;13.32;79.96;98477.86;124654;1105;64772;-81
2021/05/19 03:56:32;;;;;;;15.70;14.20;;;;;;;13.70;79.56;98492.41;124503;1105;64419;-82
2021/05/19 03:58:59;;;;;;;15.93;14.33;;;;;;;14.13;78.91;98485.06;124522;1105;64406;-81
2021/05/19 04:01:26;;;;;;;14.55;13.05;;;;;;;14.55;77.85;98493.75;124695;1105;64426;-80
2021/05/19 04:03:53;;;;;;;14.13;12.83;;;;;;;14.92;76.70;98491.20;124665;1100;64285;-80
2021/05/19 04:06:24;;;;;;;15.17;13.37;;;;;;;15.32;76.19;98498.23;124694;1104;64335;-80
2021/05/19 04:08:56;;;;;;;14.77;13.20;;;;;;;15.78;75.26;98491.16;124570;1099;64445;-81
2021/05/19 04:11:24;;;;;;;12.97;11.73;;;;;;;16.10;74.64;98497.94;124634;1105;64421;-79
2021/05/19 04:13:52;;;;;;;15.03;13.50;;;;;;;16.50;74.04;98495.86;124465;1104;64329;-80
2021/05/19 04:16:19;;;;;;;16.30;12.37;;;;;;;16.85;73.46;98484.27;124490;1100;64253;-80
2021/05/19 04:18:46;;;;;;;12.87;11.67;;;;;;;17.04;71.88;98496.73;124496;1099;64336;-80
2021/05/19 04:21:13;;;;;;;14.23;12.83;;;;;;;17.03;72.17;98506.63;124440;1104;64438;-80
2021/05/19 04:23:41;;;;;;;14.93;11.87;;;;;;;17.33;71.47;98491.05;124479;1104;64508;-80
2021/05/19 04:26:08;;;;;;;13.47;12.00;;;;;;;17.59;70.64;98495.56;124523;1098;64323;-80
2021/05/19 04:28:36;;;;;;;13.63;12.43;;;;;;;17.77;69.06;98496.34;124501;1104;64349;-81
2021/05/19 04:31:04;;;;;;;13.13;11.80;;;;;;;17.73;69.34;98506.61;124487;1100;64266;-80
2021/05/19 04:33:32;;;;;;;13.10;11.80;;;;;;;17.92;68.80;98502.86;124489;1104;64409;-80
2021/05/19 04:35:59;;;;;;;12.07;11.07;;;;;;;18.03;67.56;98512.51;124474;1105;64364;-80
2021/05/19 04:38:27;;;;;;;13.77;12.43;;;;;;;17.97;66.81;98516.70;124504;1098;64336;-80
2021/05/19 04:40:54;;;;;;;13.00;11.40;;;;;;;17.66;67.85;98510.10;124522;1104;64329;-80
2021/05/19 04:43:21;;;;;;;11.93;10.80;;;;;;;17.94;65.81;98514.33;124606;1104;64330;-81
2021/05/19 04:45:49;;;;;;;12.43;11.33;;;;;;;17.50;66.45;98516.23;124636;1104;64364;-80
2021/05/19 04:48:17;;;;;;;12.83;11.57;;;;;;;17.09;67.30;98518.65;124486;1104;64410;-80
2021/05/19 04:50:44;;;;;;;14.10;12.60;;;;;;;16.48;67.87;98519.36;124461;1104;64660;-81
2021/05/19 04:53:12;;;;;;;13.60;12.40;;;;;;;16.54;68.02;98530.38;124568;1099;64333;-81
2021/05/19 04:55:39;;;;;;;13.73;12.53;;;;;;;15.98;68.77;98528.69;124549;1100;64348;-81
2021/05/19 04:58:07;;;;;;;16.80;15.40;;;;;;;15.42;69.20;98529.56;124646;1105;64505;-80
2021/05/19 05:00:38;;;;;;;15.13;13.83;;;;;;;14.97;69.54;98533.72;124521;1104;64476;-80
2021/05/19 05:03:06;;;;;;;15.97;14.37;;;;;;;14.43;70.65;98541.28;124572;1105;64352;-79
2021/05/19 05:05:33;;;;;;;14.33;13.10;;;;;;;14.08;71.32;98547.09;124623;1104;64802;-79
2021/05/19 05:08:00;;;;;;;17.33;15.57;;;;;;;13.89;71.98;98550.55;124634;1098;64383;-79
2021/05/19 05:10:27;;;;;;;16.43;14.90;;;;;;;13.82;72.54;98542.22;124487;1100;64338;-81
2021/05/19 05:12:55;;;;;;;14.30;12.87;;;;;;;13.58;71.91;98547.86;124455;1104;64495;-80
2021/05/19 05:15:22;;;;;;;14.30;13.00;;;;;;;13.34;72.54;98542.78;124464;1105;64377;-80
2021/05/19 05:17:50;;;;;;;13.87;12.27;;;;;;;13.34;73.28;98548.14;124492;1100;64336;-81
2021/05/19 05:20:19;;;;;;;14.07;12.67;;;;;;;13.41;73.31;98553.83;124516;1098;64358;-81
2021/05/19 05:22:47;;;;;;;15.03;13.60;;;;;;;13.38;73.02;98552.27;124697;1099;64565;-81
2021/05/19 05:25:15;;;;;;;16.13;14.53;;;;;;;13.41;73.72;98551.16;124616;1098;64368;-80
2021/05/19 05:27:42;;;;;;;17.43;15.67;;;;;;;13.44;73.67;98548.20;124725;1104;64341;-80
2021/05/19 05:30:10;;;;;;;17.23;15.53;;;;;;;13.97;72.15;98547.20;124647;1104;64379;-80
2021/05/19 05:32:37;;;;;;;16.10;14.45;;;;;;;13.77;73.19;98544.45;124671;1100;64288;-80
2021/05/19 05:35:05;;;;;;;18.00;16.20;;;;;;;13.78;73.08;98556.00;124723;1100;64338;-81
2021/05/19 05:37:33;;;;;;;18.00;16.47;;;;;;;13.88;72.94;98553.38;124602;1105;64466;-80
2021/05/19 05:40:01;;;;;;;18.67;16.80;;;;;;;13.82;73.08;98560.97;124557;1104;64364;-81
2021/05/19 05:42:28;;;;;;;19.73;17.90;;;;;;;13.64;72.74;98557.22;124670;1105;64405;-80
2021/05/19 05:44:56;;;;;;;21.60;19.50;;;;;;;13.48;72.94;98560.36;124615;1098;64326;-80
2021/05/19 05:47:23;;;;;;;32.77;21.40;;;;;;;13.52;73.03;98564.46;124657;1099;64503;-81
2021/05/19 05:49:52;;;;;;;22.20;19.70;;;;;;;13.49;73.58;98556.70;124562;1099;64469;-80
2021/05/19 05:52:20;;;;;;;21.33;19.23;;;;;;;13.45;73.25;98563.28;124688;1104;64291;-80
2021/05/19 05:54:47;;;;;;;28.50;19.30;;;;;;;13.60;73.39;98563.80;124680;1105;64364;-80
2021/05/19 05:57:14;;;;;;;20.50;18.17;;;;;;;13.75;72.85;98575.88;124586;1100;64361;-80
2021/05/19 05:59:42;;;;;;;22.77;20.67;;;;;;;14.18;72.90;98572.09;124582;1100;64352;-80
2021/05/19 06:02:09;;;;;;;19.53;17.63;;;;;;;14.54;71.58;98567.16;124573;1100;64479;-80
2021/05/19 06:04:37;;;;;;;28.37;19.03;;;;;;;14.83;70.88;98571.72;124580;1100;64421;-80
2021/05/19 06:07:05;;;;;;;21.30;19.30;;;;;;;14.87;70.70;98565.91;124670;1099;64342;-81
2021/05/19 06:09:33;;;;;;;18.13;16.43;;;;;;;15.10;70.25;98568.32;124527;1104;64339;-81
2021/05/19 06:12:00;;;;;;;20.70;18.70;;;;;;;15.09;70.32;98567.48;124556;1099;64285;-80
2021/05/19 06:14:28;;;;;;;20.90;18.80;;;;;;;15.19;69.74;98570.14;124621;1104;64477;-81
2021/05/19 06:16:58;;;;;;;19.47;17.77;;;;;;;15.62;69.55;98562.61;124583;1105;64378;-81
2021/05/19 06:19:26;;;;;;;19.65;17.90;;;;;;;16.32;67.99;98561.20;124664;1099;64293;-80
2021/05/19 06:21:53;;;;;;;19.27;17.57;;;;;;;16.68;67.47;98563.98;124643;1104;64702;-80
2021/05/19 06:24:21;;;;;;;17.03;15.63;;;;;;;16.91;65.75;98566.27;124703;1098;64288;-79
2021/05/19 06:26:48;;;;;;;17.37;15.70;;;;;;;16.81;66.12;98563.64;124616;1105;64346;-80
2021/05/19 06:29:15;;;;;;;16.90;15.40;;;;;;;17.17;65.60;98571.70;124530;1100;64438;-80
2021/05/19 06:31:43;;;;;;;17.87;16.30;;;;;;;17.15;65.35;98571.87;124500;1099;64325;-80
2021/05/19 06:34:10;;;;;;;18.57;16.90;;;;;;;16.73;65.87;98564.37;124547;1098;64272;-80
2021/05/19 06:36:41;;;;;;;18.70;16.85;;;;;;;17.08;65.10;98568.09;124482;1099;64367;-80
2021/05/19 06:39:08;;;;;;;18.17;16.57;;;;;;;17.61;64.05;98558.23;124491;1104;64493;-80
2021/05/19 06:41:36;;;;;;;17.87;16.37;;;;;;;17.65;63.92;98565.02;124494;1105;64560;-81
2021/05/19 06:44:03;;;;;;;19.77;18.07;;;;;;;17.94;64.87;98564.72;124648;1098;64263;-80
2021/05/19 06:46:30;;;;;;;20.43;18.43;;;;;;;17.87;65.34;98567.19;124625;1104;64345;-80
2021/05/19 06:49:02;;;;;;;21.60;19.75;;;;;;;17.66;65.58;98572.92;124505;1104;64272;-80
2021/05/19 06:51:31;;;;;;;21.63;19.70;;;;;;;17.65;64.17;98573.10;124486;1105;64480;-80
2021/05/19 06:53:59;;;;;;;20.50;18.60;;;;;;;17.47;65.14;98567.75;124497;1100;64336;-80
2021/05/19 06:56:27;;;;;;;17.73;16.33;;;;;;;17.28;64.94;98575.02;124553;1105;64336;-80
2021/05/19 06:58:55;;;;;;;17.00;15.40;;;;;;;17.59;63.60;98571.02;124548;1099;64332;-79
2021/05/19 07:01:22;;;;;;;14.10;12.80;;;;;;;17.38;64.20;98572.23;124579;1099;64348;-79
2021/05/19 07:03:50;;;;;;;10.97;9.90;;;;;;;17.70;62.83;98573.47;124512;1104;64325;-79
2021/05/19 07:06:19;;;;;;;11.07;9.97;;;;;;;17.61;62.54;98567.16;124627;1100;64405;-79
2021/05/19 07:08:47;;;;;;;19.13;10.53;;;;;;;17.49;63.18;98573.83;124638;1104;64366;-80
2021/05/19 07:11:14;;;;;;;12.53;9.77;;;;;;;17.48;63.47;98570.30;124516;1100;64782;-80
2021/05/19 07:13:42;;;;;;;9.35;8.40;;;;;;;17.33;62.98;98571.86;124465;1104;64475;-80
2021/05/19 07:16:11;;;;;;;14.57;8.10;;;;;;;17.13;62.77;98573.86;124503;1105;64498;-79
2021/05/19 07:18:38;;;;;;;7.35;6.65;;;;;;;16.77;62.41;98578.35;124470;1100;64342;-80
2021/05/19 07:21:05;;;;;;;7.50;6.80;;;;;;;16.56;63.56;98574.13;124578;1104;64345;-82
2021/05/19 07:23:33;;;;;;;8.50;7.77;;;;;;;16.56;62.99;98571.43;124552;1098;64339;-81
2021/05/19 07:26:01;;;;;;;8.03;7.33;;;;;;;16.73;63.34;98579.67;124617;1104;64339;-81
2021/05/19 07:28:28;;;;;;;8.47;7.20;;;;;;;16.89;62.65;98575.32;124649;1104;64656;-80
2021/05/19 07:30:56;;;;;;;7.23;6.63;;;;;;;17.14;63.43;98567.50;124492;1105;64288;-80
2021/05/19 07:33:23;;;;;;;8.93;6.80;;;;;;;17.61;63.77;98567.16;124510;1100;64358;-80
2021/05/19 07:35:50;;;;;;;7.17;6.57;;;;;;;17.98;62.10;98574.16;124635;1105;64435;-79
2021/05/19 07:38:18;;;;;;;6.70;6.10;;;;;;;17.94;61.01;98565.56;124460;1104;64425;-79
2021/05/19 07:40:45;;;;;;;6.23;5.73;;;;;;;17.53;60.26;98564.41;124474;1105;64452;-80
2021/05/19 07:43:13;;;;;;;6.00;5.50;;;;;;;17.36;59.60;98570.70;124520;1100;64501;-79
2021/05/19 07:45:41;;;;;;;5.60;5.20;;;;;;;17.42;60.31;98575.45;124478;1099;64342;-79
2021/05/19 07:48:09;;;;;;;6.30;5.70;;;;;;;17.39;59.24;98570.38;124506;1104;64306;-79
2021/05/19 07:50:40;;;;;;;6.77;6.17;;;;;;;17.28;60.09;98571.48;124488;1105;64492;-79
2021/05/19 07:53:08;;;;;;;6.77;5.47;;;;;;;17.58;60.62;98575.56;124610;1104;64320;-79
2021/05/19 08:03:17;;;;;;;7.50;6.50;;;;;;;17.04;60.29;98572.95;124541;1100;64426;-79
2021/05/19 08:05:45;;;;;;;7.10;6.50;;;;;;;16.92;60.04;98568.78;124616;1105;64287;-80
2021/05/19 08:08:12;;;;;;;6.87;6.27;;;;;;;16.86;59.77;98564.87;124557;1104;64342;-80
2021/05/19 08:10:41;;;;;;;6.30;5.70;;;;;;;16.98;60.46;98565.50;124624;1100;64258;-81
2021/05/19 08:13:09;;;;;;;6.17;5.67;;;;;;;17.14;60.57;98567.50;124619;1098;64349;-80
2021/05/19 08:15:37;;;;;;;8.20;7.40;;;;;;;17.39;60.51;98557.75;124608;1104;64307;-80
2021/05/19 08:18:08;;;;;;;10.50;8.70;;;;;;;17.45;57.83;98559.81;124625;1104;64309;-80
2021/05/19 08:20:36;;;;;;;13.07;7.20;;;;;;;17.53;59.32;98559.86;124614;1100;64425;-80
2021/05/19 08:23:03;;;;;;;9.33;8.53;;;;;;;17.42;58.02;98562.83;124591;1098;64285;-79
2021/05/19 08:25:31;;;;;;;10.37;9.20;;;;;;;17.26;58.87;98552.77;124634;1104;64457;-80
2021/05/19 08:27:59;;;;;;;9.20;8.43;;;;;;;17.22;59.86;98564.00;124510;1100;64467;-79
2021/05/19 08:30:28;;;;;;;;;;;;;;;17.20;59.54;98549.88;124516;1104;64476;-79
2021/05/19 08:32:55;;;;;;;9.77;8.87;;;;;;;17.21;59.95;98556.94;124496;1105;64291;-80
2021/05/19 08:35:24;;;;;;;10.10;9.25;;;;;;;17.30;59.66;98550.63;124617;1104;64345;-80
2021/05/19 08:37:52;;;;;;;9.57;8.67;;;;;;;17.52;60.01;98552.80;124477;1100;64371;-80
2021/05/19 08:40:19;;;;;;;9.20;8.50;;;;;;;17.86;59.44;98548.50;124472;1104;64428;-80
2021/05/19 08:42:47;;;;;;;8.97;8.27;;;;;;;18.04;58.52;98549.27;124472;1104;64377;-80
2021/05/19 08:45:15;;;;;;;8.20;7.60;;;;;;;17.82;56.75;98547.12;124560;1098;64266;-80
2021/05/19 08:47:43;;;;;;;9.87;9.07;;;;;;;17.68;57.29;98546.67;124495;1104;64336;-80
2021/05/19 08:50:11;;;;;;;8.30;7.50;;;;;;;17.71;57.29;98549.05;124597;1099;64364;-79
2021/05/19 08:52:41;;;;;;;9.03;8.23;;;;;;;17.62;57.25;98543.78;124477;1098;64343;-80
2021/05/19 08:55:19;;;;;;;18.60;9.80;;;;;;;17.43;58.21;98547.50;124570;1099;64336;-80
2021/05/19 08:57:47;;;;;;;8.90;8.20;;;;;;;17.45;58.56;98537.41;124521;1104;64342;-80
2021/05/19 09:00:15;;;;;;;7.40;6.80;;;;;;;17.30;58.29;98546.08;124480;1105;64313;-79
2021/05/19 09:03:06;;;;;;;7.13;6.53;;;;;;;17.31;57.60;98545.06;124493;1098;64336;-80
2021/05/19 09:05:35;;;;;;;19.75;9.75;;;;;;;17.64;57.37;98549.83;124655;1098;64471;-79
2021/05/19 09:08:08;;;;;;;8.70;7.90;;;;;;;17.72;56.39;98542.66;124573;1104;64309;-79
2021/05/19 09:10:41;;;;;;;5.30;4.90;;;;;;;17.61;57.87;98547.45;124645;1104;64397;-79
2021/05/19 09:13:35;;;;;;;3.43;3.23;;;;;;;17.42;56.82;98541.27;124586;1104;64373;-79
2021/05/19 09:16:05;;;;;;;4.70;3.00;;;;;;;17.17;57.31;98547.45;124537;1100;64461;-80
2021/05/19 09:18:44;;;;;;;2.90;2.70;;;;;;;17.37;56.52;98543.59;124478;1099;64259;-80
2021/05/19 09:21:33;;;;;;;4.33;3.23;;;;;;;17.88;57.41;98533.02;124449;1099;64342;-80
2021/05/19 09:24:03;;;;;;;3.50;2.60;;;;;;;18.36;56.25;98523.44;124543;1100;64348;-79
2021/05/19 09:26:32;;;;;;;4.57;2.80;;;;;;;18.32;56.69;98517.50;124637;1104;64259;-79
2021/05/19 09:29:20;;;;;;;3.17;2.93;;;;;;;18.17;54.88;98527.25;124531;1099;64320;-80
2021/05/19 09:31:55;;;;;;;2.93;2.70;;;;;;;17.86;54.46;98527.78;124547;1104;64364;-80
2021/05/19 09:34:37;;;;;;;5.80;3.43;;;;;;;17.50;55.12;98527.85;124523;1098;64341;-79
2021/05/19 09:37:25;;;;;;;3.80;3.50;;;;;;;17.28;56.39;98533.77;124595;1104;64335;-79
2021/05/19 09:40:12;;;;;;;6.00;5.50;;;;;;;17.15;56.91;98534.17;124658;1105;64266;-79
2021/05/19 09:42:47;;;;;;;6.20;5.23;;;;;;;17.08;57.24;98528.55;124524;1099;64664;-79
2021/05/19 09:45:24;;;;;;;5.30;4.90;;;;;;;17.04;57.71;98537.95;124692;1104;64574;-80
2021/05/19 09:47:53;;;;;;;4.80;4.50;;;;;;;17.13;57.06;98524.55;124554;1099;64318;-79
2021/05/19 09:50:39;;;;;;;4.63;3.95;;;;;;;17.57;57.16;98527.24;124588;1104;64795;-79
2021/05/19 09:53:07;;;;;;;4.70;3.17;;;;;;;18.28;56.83;98518.86;124564;1104;64335;-80
2021/05/19 09:55:41;;;;;;;4.60;3.00;;;;;;;18.70;55.00;98499.06;124516;1100;64355;-80
2021/05/19 09:58:08;;;;;;;3.90;3.00;;;;;;;18.96;54.81;98495.41;124523;1099;64397;-80
2021/05/19 10:00:36;;;;;;;3.87;3.20;;;;;;;19.16;54.34;98499.44;124521;1099;64336;-79
2021/05/19 10:03:07;;;;;;;2.97;2.70;;;;;;;19.01;53.50;98504.69;124605;1100;64705;-80
2021/05/19 10:05:40;;;;;;;4.77;3.43;;;;;;;18.56;53.08;98516.75;124544;1105;64281;-80
2021/05/19 10:08:08;;;;;;;7.70;5.67;;;;;;;18.12;53.70;98525.03;124582;1104;64347;-80
2021/05/19 10:10:36;;;;;;;6.60;6.00;;;;;;;17.47;53.89;98520.09;124453;1104;64667;-80
2021/05/19 10:13:03;;;;;;;6.47;5.83;;;;;;;17.03;54.87;98517.39;124488;1104;64480;-80
2021/05/19 10:15:33;;;;;;;6.47;5.90;;;;;;;16.81;54.99;98513.34;124470;1104;64262;-81
2021/05/19 10:18:04;;;;;;;7.10;5.90;;;;;;;16.66;55.37;98520.23;124576;1105;64405;-79
2021/05/19 10:20:56;;;;;;;6.43;5.90;;;;;;;16.47;56.02;98513.14;124662;1104;64288;-79
2021/05/19 10:23:40;;;;;;;7.93;5.97;;;;;;;16.44;56.96;98508.07;124501;1105;64310;-79
2021/05/19 10:26:12;;;;;;;6.50;5.90;;;;;;;16.62;57.29;98518.86;124545;1105;64293;-79
2021/05/19 10:28:47;;;;;;;7.50;6.90;;;;;;;16.50;58.88;98531.66;124520;1105;64428;-79
2021/05/19 10:31:24;;;;;;;9.63;8.73;;;;;;;16.11;60.64;98534.56;124488;1104;64317;-80
2021/05/19 10:34:00;;;;;;;8.97;8.23;;;;;;;15.78;60.96;98528.78;124513;1099;64361;-80
2021/05/19 10:36:36;;;;;;;9.27;8.47;;;;;;;15.54;61.32;98539.16;124545;1104;64644;-81
2021/05/19 10:39:10;;;;;;;9.03;8.13;;;;;;;15.39;62.35;98538.75;124619;1105;64528;-80
2021/05/19 10:41:38;;;;;;;8.87;8.07;;;;;;;15.36;62.54;98534.52;124488;1104;64333;-80
2021/05/19 10:44:09;;;;;;;16.75;8.70;;;;;;;15.37;61.75;98536.20;124522;1104;64296;-80
2021/05/19 10:46:46;;;;;;;8.10;7.40;;;;;;;15.28;61.46;98541.61;124507;1104;64333;-80
2021/05/19 10:49:17;;;;;;;8.57;7.73;;;;;;;15.29;62.68;98546.81;124484;1098;64495;-80
2021/05/19 11:00:11;;;;;;;9.13;8.30;;;;;;;15.56;62.92;98547.89;124741;1104;64237;-80
2021/05/19 11:03:00;;;;;;;12.20;10.05;;;;;;;15.71;63.67;98545.63;124552;1104;64383;-80
2021/05/19 11:05:32;;;;;;;11.00;9.83;;;;;;;15.91;63.98;98547.27;124720;1100;64432;-80
2021/05/19 11:08:05;;;;;;;11.70;9.60;;;;;;;16.13;63.94;98547.88;124590;1104;64331;-80
2021/05/19 11:10:35;;;;;;;15.50;11.75;;;;;;;16.33;63.85;98541.41;124608;1100;64342;-80
2021/05/19 11:13:03;;;;;;;15.78;11.88;;;;;;;16.45;63.84;98536.65;124743;1098;64332;-81
2021/05/19 11:16:15;;;;;;;11.65;10.45;;;;;;;16.56;63.90;98539.14;124704;1098;64435;-80
2021/05/19 11:21:22;;;;;;;12.83;10.37;;;;;;;16.67;63.52;98541.61;124626;1104;64309;-81
2021/05/19 11:24:12;;;;;;;10.55;9.53;;;;;;;16.72;63.70;98537.59;124758;1105;64316;-80
2021/05/19 11:26:44;;;;;;;13.30;9.23;;;;;;;16.81;63.26;98536.73;124823;1105;64265;-81
2021/05/19 11:29:15;;;;;;;8.53;7.63;;;;;;;16.88;62.98;98541.34;124816;1099;64588;-83
2021/05/19 11:31:47;;;;;;;8.80;7.80;;;;;;;16.88;63.27;98537.81;124752;1099;64374;-84
2021/05/19 11:34:18;;;;;;;13.87;9.53;;;;;;;16.94;63.49;98533.66;124868;1104;64330;-84
2021/05/19 11:36:56;;;;;;;14.43;9.40;;;;;;;16.96;63.52;98531.66;124654;1099;64281;-85
2021/05/19 11:39:37;;;;;;;9.77;7.83;;;;;;;17.00;63.57;98533.86;124518;1099;64291;-84
2021/05/19 11:42:20;;;;;;;9.17;7.70;;;;;;;17.13;63.70;98524.55;124635;1099;64457;-84
2021/05/19 11:44:54;;;;;;;8.33;6.73;;;;;;;17.35;63.09;98524.04;124691;1105;64490;-84
2021/05/19 11:47:38;;;;;;;15.10;9.40;;;;;;;17.58;63.05;98520.84;124823;1099;64336;-84
2021/05/19 11:50:17;;;;;;;10.27;7.73;;;;;;;17.81;62.17;98515.79;124572;1098;64400;-84
2021/05/19 11:53:02;;;;;;;5.90;5.40;;;;;;;18.02;61.70;98520.78;124582;1100;64250;-84